Time;durP1;ratioP1;P1;durP2;ratioP2;P2;SDS_P1;SDS_P2;PMS_P1;PMS_P2;Temp;Humidity;BMP_temperature;BMP_pressure;BME280_temperature;BME280_humidity;BME280_pressure;Samples;Min_cycle;Max_cycle;Signal;HPM_P1;HPM_P2
2023/08/21 00:02:13;;;;;;;1.08;0.10;;;20.30;75.40;;;;;;4864416;29;20402;-89
2023/08/21 00:04:58;;;;;;;1.38;0.22;;;20.30;75.60;;;;;;4846168;29;20054;-89
2023/08/21 00:07:32;;;;;;;0.63;0.10;;;20.30;75.70;;;;;;4832303;29;20046;-89
2023/08/21 00:10:09;;;;;;;1.02;0.10;;;20.20;75.90;;;;;;4862557;29;20046;-89
2023/08/21 00:12:56;;;;;;;0.70;0.20;;;20.30;76.00;;;;;;4839497;29;20511;-89
2023/08/21 00:15:42;;;;;;;1.98;0.28;;;20.30;76.00;;;;;;4827717;29;20077;-88
2023/08/21 00:18:15;;;;;;;1.25;0.28;;;20.30;76.00;;;;;;4863941;29;20056;-88
2023/08/21 00:20:48;;;;;;;0.45;0.15;;;20.30;76.20;;;;;;4848639;29;20045;-88
2023/08/21 00:23:21;;;;;;;0.30;0.10;;;20.30;76.20;;;;;;4865015;29;20049;-87
2023/08/21 00:26:02;;;;;;;0.57;0.20;;;20.30;76.30;;;;;;4872013;29;20512;-88
2023/08/21 00:28:44;;;;;;;0.57;0.20;;;20.40;76.40;;;;;;4848948;29;20511;-89
2023/08/21 00:31:31;;;;;;;1.83;0.30;;;20.30;76.50;;;;;;4857652;29;20068;-88
2023/08/21 00:34:05;;;;;;;;;;;20.30;76.60;;;;;;4836161;29;20067;-88
2023/08/21 00:37:12;;;;;;;2.08;0.22;;;20.30;76.50;;;;;;4874841;29;19938;-88
2023/08/21 00:39:58;;;;;;;0.30;0.20;;;20.40;76.60;;;;;;4844269;29;20050;-88
2023/08/21 00:42:50;;;;;;;0.65;0.20;;;20.40;76.60;;;;;;4849146;29;20053;-88
2023/08/21 00:45:18;;;;;;;1.00;0.30;;;20.40;76.60;;;;;;4855165;29;20049;-89
2023/08/21 00:47:49;;;;;;;1.05;0.20;;;20.40;76.70;;;;;;4860122;29;20510;-89
2023/08/21 00:50:19;;;;;;;3.27;0.37;;;20.50;76.90;;;;;;4860328;29;20077;-89
2023/08/21 00:52:47;;;;;;;1.00;0.30;;;20.50;76.90;;;;;;4875313;29;20084;-85
2023/08/21 00:55:28;;;;;;;1.38;0.22;;;20.50;77.00;;;;;;4864461;29;20045;-85
2023/08/21 00:58:04;;;;;;;1.25;0.30;;;20.50;77.00;;;;;;4879298;29;20053;-85
2023/08/21 01:00:53;;;;;;;1.02;0.28;;;20.50;77.00;;;;;;4848915;29;20060;-85
2023/08/21 01:03:38;;;;;;;1.05;0.20;;;20.50;77.00;;;;;;4863522;29;20049;-85
2023/08/21 01:06:36;;;;;;;0.85;0.28;;;20.50;77.20;;;;;;4860966;29;20106;-85
2023/08/21 01:09:38;;;;;;;1.35;0.28;;;20.40;77.30;;;;;;4847699;29;20086;-85
2023/08/21 01:12:22;;;;;;;0.63;0.20;;;20.40;77.50;;;;;;4851473;29;20113;-85
2023/08/21 01:15:07;;;;;;;1.05;0.30;;;20.30;77.80;;;;;;4864565;29;20054;-84
2023/08/21 01:17:45;;;;;;;0.95;0.20;;;20.20;77.90;;;;;;4876387;29;20089;-85
2023/08/21 01:20:16;;;;;;;1.92;0.30;;;20.20;78.10;;;;;;4864940;29;20108;-85
2023/08/21 01:22:50;;;;;;;1.20;0.20;;;20.20;78.30;;;;;;4874083;29;20347;-85
2023/08/21 01:25:44;;;;;;;0.90;0.30;;;20.10;78.60;;;;;;4859368;29;20211;-85
2023/08/21 01:28:17;;;;;;;1.02;0.22;;;20.00;78.80;;;;;;4877704;29;20409;-86
2023/08/21 01:31:28;;;;;;;1.33;0.30;;;20.00;78.90;;;;;;4865955;29;20048;-85
2023/08/21 01:34:17;;;;;;;1.38;0.32;;;20.00;79.00;;;;;;4869734;29;20053;-84
2023/08/21 01:37:14;;;;;;;1.60;0.30;;;19.90;79.20;;;;;;4865923;29;20052;-84
2023/08/21 01:43:13;;;;;;;1.05;0.32;;;19.80;79.50;;;;;;4863708;29;20059;-84
2023/08/21 01:45:51;;;;;;;0.68;0.20;;;19.70;79.60;;;;;;4879079;29;20064;-85
2023/08/21 01:48:24;;;;;;;2.10;0.32;;;19.70;79.80;;;;;;4862395;29;20503;-85
2023/08/21 01:50:56;;;;;;;1.05;0.22;;;19.70;79.90;;;;;;4850586;29;20049;-86
2023/08/21 01:53:27;;;;;;;2.05;0.35;;;19.60;80.10;;;;;;4865106;29;20065;-85
2023/08/21 01:55:59;;;;;;;2.58;0.40;;;19.60;80.80;;;;;;4865558;29;20053;-84
2023/08/21 01:58:37;;;;;;;0.57;0.22;;;19.60;80.40;;;;;;4865611;29;20053;-83
2023/08/21 02:01:11;;;;;;;1.02;0.20;;;19.50;80.50;;;;;;4880049;29;20088;-85
2023/08/21 02:03:40;;;;;;;1.38;0.20;;;19.50;80.60;;;;;;4859193;29;20051;-85
2023/08/21 02:06:10;;;;;;;0.50;0.20;;;19.50;80.60;;;;;;4859156;29;20463;-85
2023/08/21 02:08:39;;;;;;;1.83;0.28;;;19.60;80.60;;;;;;4880719;29;20041;-85
2023/08/21 02:11:09;;;;;;;1.45;0.20;;;19.60;80.60;;;;;;4874688;29;20136;-85
2023/08/21 02:13:39;;;;;;;1.05;0.20;;;19.70;80.60;;;;;;4850674;29;20049;-84
2023/08/21 02:16:13;;;;;;;0.98;0.20;;;19.70;80.50;;;;;;4865468;29;20140;-88
2023/08/21 02:18:44;;;;;;;1.48;0.20;;;19.80;80.50;;;;;;4871767;29;20043;-88
2023/08/21 02:21:17;;;;;;;0.90;0.20;;;19.80;80.40;;;;;;4883568;29;20100;-88
2023/08/21 02:23:47;;;;;;;0.93;0.10;;;19.80;80.40;;;;;;4848147;29;20075;-89
2023/08/21 02:26:16;;;;;;;1.05;0.20;;;19.80;80.50;;;;;;4879528;29;20329;-88
2023/08/21 02:28:47;;;;;;;1.52;0.20;;;19.80;80.60;;;;;;4868839;29;20136;-89
2023/08/21 02:31:17;;;;;;;1.20;0.20;;;19.80;80.60;;;;;;4850102;29;20049;-89
2023/08/21 02:33:49;;;;;;;1.52;0.20;;;19.80;80.60;;;;;;4865037;29;20049;-89
2023/08/21 02:36:24;;;;;;;1.35;0.20;;;19.90;80.60;;;;;;4876126;29;20044;-89
2023/08/21 02:38:52;;;;;;;1.38;0.20;;;19.90;80.60;;;;;;4852254;29;20091;-89
2023/08/21 02:41:19;;;;;;;0.55;0.20;;;19.90;80.60;;;;;;4847612;29;20045;-89
2023/08/21 02:43:49;;;;;;;1.02;0.30;;;19.90;80.60;;;;;;4867601;29;20155;-89
2023/08/21 02:46:17;;;;;;;1.58;0.25;;;19.90;80.70;;;;;;4865158;29;20072;-89
2023/08/21 02:48:47;;;;;;;1.35;0.30;;;19.90;80.80;;;;;;4872988;29;20053;-88
2023/08/21 02:51:16;;;;;;;0.75;0.20;;;19.90;80.90;;;;;;4870760;29;20084;-89
2023/08/21 02:53:49;;;;;;;;;;;19.80;80.90;;;;;;4883722;29;20052;-88
2023/08/21 02:56:35;;;;;;;0.50;0.20;;;19.80;80.90;;;;;;4869531;29;20014;-87
2023/08/21 02:59:08;;;;;;;0.82;0.20;;;19.70;81.00;;;;;;4869316;29;20136;-88
2023/08/21 03:01:42;;;;;;;0.30;0.20;;;19.70;81.10;;;;;;4851393;29;20054;-88
2023/08/21 03:04:10;;;;;;;0.65;0.20;;;19.80;81.30;;;;;;4873730;29;20049;-88
2023/08/21 03:06:37;;;;;;;1.52;0.10;;;19.70;81.30;;;;;;4880275;29;20052;-88
2023/08/21 03:09:05;;;;;;;0.75;0.20;;;19.70;81.30;;;;;;4878781;29;20049;-88
2023/08/21 03:11:36;;;;;;;1.48;0.40;;;19.70;81.40;;;;;;4863926;29;20105;-88
2023/08/21 03:14:06;;;;;;;1.60;0.20;;;19.70;81.50;;;;;;4858904;29;20578;-88
2023/08/21 03:16:37;;;;;;;2.15;0.40;;;19.70;81.60;;;;;;4868558;29;20140;-88
2023/08/21 03:19:17;;;;;;;0.73;0.13;;;19.70;81.60;;;;;;4861411;29;20045;-89
2023/08/21 03:21:49;;;;;;;1.15;0.17;;;19.70;81.50;;;;;;4880880;29;20049;-88
2023/08/21 03:24:25;;;;;;;1.40;0.15;;;19.70;81.50;;;;;;4878526;29;20051;-88
2023/08/21 03:26:58;;;;;;;0.75;0.20;;;19.70;81.50;;;;;;4855889;29;20136;-88
2023/08/21 03:29:25;;;;;;;0.75;0.20;;;19.80;81.60;;;;;;4850628;29;20057;-89
2023/08/21 03:31:58;;;;;;;0.77;0.40;;;19.80;81.60;;;;;;4864431;29;20105;-88
2023/08/21 03:34:32;;;;;;;1.35;0.30;;;19.80;82.20;;;;;;4864420;29;20116;-88
2023/08/21 03:37:05;;;;;;;1.10;0.17;;;19.80;81.60;;;;;;4865675;29;20057;-89
2023/08/21 03:39:36;;;;;;;1.00;0.20;;;19.80;81.50;;;;;;4882736;29;20052;-88
2023/08/21 03:42:08;;;;;;;1.08;0.20;;;19.80;81.50;;;;;;4866347;29;20046;-88
2023/08/21 03:44:41;;;;;;;1.23;0.20;;;19.80;81.50;;;;;;4863956;29;20131;-89
2023/08/21 03:47:16;;;;;;;1.67;0.20;;;19.90;81.60;;;;;;4864862;29;20578;-89
2023/08/21 03:50:01;;;;;;;0.32;0.10;;;19.90;81.60;;;;;;4827659;29;20041;-88
2023/08/21 03:52:35;;;;;;;1.58;0.20;;;19.80;81.70;;;;;;4865640;29;20085;-88
2023/08/21 03:55:06;;;;;;;1.20;0.20;;;19.80;81.80;;;;;;4871787;29;20510;-89
2023/08/21 03:57:43;;;;;;;1.67;0.32;;;19.80;81.80;;;;;;4865060;29;20471;-89
2023/08/21 04:00:16;;;;;;;1.27;0.30;;;19.80;81.90;;;;;;4849360;29;20052;-88
2023/08/21 04:02:50;;;;;;;0.85;0.30;;;19.70;82.10;;;;;;4859274;29;20501;-89
2023/08/21 04:05:18;;;;;;;1.20;0.20;;;19.60;82.40;;;;;;4871181;29;20139;-89
2023/08/21 04:07:46;;;;;;;1.75;0.30;;;19.60;82.70;;;;;;4862979;29;20049;-89
2023/08/21 04:10:29;;;;;;;0.60;0.20;;;19.50;82.90;;;;;;4881893;29;20053;-88
2023/08/21 04:13:19;;;;;;;1.67;0.38;;;19.40;83.00;;;;;;4864195;29;20057;-88
2023/08/21 04:15:49;;;;;;;2.53;0.30;;;19.30;83.20;;;;;;4875300;29;20077;-88
2023/08/21 04:18:22;;;;;;;1.10;0.30;;;19.30;83.30;;;;;;4858759;29;20045;-88
2023/08/21 04:21:11;;;;;;;1.95;0.30;;;19.20;83.30;;;;;;4869972;29;20099;-87
2023/08/21 04:23:40;;;;;;;1.55;0.20;;;19.30;83.30;;;;;;4877225;29;20540;-87
2023/08/21 04:26:19;;;;;;;0.65;0.20;;;19.30;83.30;;;;;;4876844;29;20129;-88
2023/08/21 04:28:57;;;;;;;2.00;0.30;;;19.30;83.20;;;;;;4877816;29;20060;-87
2023/08/21 04:35:11;;;;;;;;;;;19.40;83.10;;;;;;4845784;29;20145;-87
2023/08/21 04:37:58;;;;;;;0.80;0.10;;;19.30;82.90;;;;;;4845000;29;19980;-87
2023/08/21 04:44:22;;;;;;;0.95;0.30;;;19.30;83.00;;;;;;4834427;29;20185;-88
2023/08/21 04:47:24;;;;;;;1.02;0.20;;;19.30;82.90;;;;;;4845852;29;20054;-89
2023/08/21 04:50:18;;;;;;;1.17;0.30;;;19.30;82.80;;;;;;4832239;29;20254;-87
2023/08/21 04:53:02;;;;;;;;;;;;;;;;;;;;;
2023/08/21 04:55:54;;;;;;;2.20;0.20;;;19.30;83.00;;;;;;4819342;29;20050;-88
2023/08/21 05:08:20;;;;;;;0.90;0.20;;;19.40;82.90;;;;;;4806941;29;20102;-86
2023/08/21 05:14:54;;;;;;;0.35;0.20;;;19.50;82.70;;;;;;4857121;29;20049;-87
2023/08/21 05:17:43;;;;;;;2.05;0.30;;;19.50;82.50;;;;;;4838964;29;20494;-86
2023/08/21 05:20:47;;;;;;;;;;;;;;;;;;;;;
2023/08/21 05:24:05;;;;;;;1.30;0.13;;;19.60;82.50;;;;;;4856883;29;20459;-87
2023/08/21 05:27:04;;;;;;;0.55;0.20;;;19.60;82.50;;;;;;4868527;29;20049;-86
2023/08/21 05:33:38;;;;;;;0.45;0.40;;;19.50;82.80;;;;;;4820537;29;20074;-85
2023/08/21 05:36:39;;;;;;;1.48;0.30;;;19.50;82.90;;;;;;4873185;29;20057;-86
2023/08/21 05:39:28;;;;;;;1.65;0.30;;;19.40;83.10;;;;;;4868178;29;20140;-86
2023/08/21 05:42:32;;;;;;;;;;;;;;;;;;;;;
2023/08/21 05:45:27;;;;;;;1.08;0.20;;;19.50;83.10;;;;;;4866034;29;20040;-87
2023/08/21 05:48:10;;;;;;;0.47;0.30;;;19.60;82.90;;;;;;4856510;29;20044;-86
2023/08/21 05:51:17;;;;;;;1.23;0.40;;;19.70;82.60;;;;;;4869396;29;20049;-86
2023/08/21 05:53:47;;;;;;;0.77;0.20;;;19.80;82.40;;;;;;4843998;29;20081;-86
2023/08/21 05:56:48;;;;;;;2.17;0.20;;;19.80;82.40;;;;;;4862524;29;20053;-86
2023/08/21 05:59:33;;;;;;;0.52;0.10;;;19.80;82.50;;;;;;4837928;29;20052;-86
2023/08/21 06:02:16;;;;;;;0.22;0.20;;;19.80;82.60;;;;;;4871555;29;20454;-85
2023/08/21 06:05:07;;;;;;;1.10;0.20;;;19.80;82.80;;;;;;4862605;29;20076;-86
2023/08/21 06:07:48;;;;;;;0.98;0.20;;;19.80;83.00;;;;;;4865270;29;20048;-86
2023/08/21 06:10:31;;;;;;;1.13;0.20;;;19.80;83.00;;;;;;4866178;29;20053;-86
2023/08/21 06:13:28;;;;;;;;;;;;;;;;;;;;;
2023/08/21 06:16:26;;;;;;;;;;;;;;;;;;;;;
2023/08/21 06:19:02;;;;;;;0.68;0.22;;;20.20;82.30;;;;;;4865433;29;20055;-85
2023/08/21 06:22:28;;;;;;;1.55;0.20;;;20.40;82.00;;;;;;4865706;29;20124;-86
2023/08/21 06:25:05;;;;;;;2.63;0.45;;;20.50;81.40;;;;;;4863423;29;20115;-88
2023/08/21 06:27:33;;;;;;;1.13;0.30;;;20.70;81.20;;;;;;4873981;29;20214;-89
2023/08/21 06:30:40;;;;;;;0.50;0.20;;;20.70;80.90;;;;;;4868319;29;20512;-89
2023/08/21 06:33:19;;;;;;;0.90;0.20;;;20.80;80.70;;;;;;4857962;29;20101;-89
2023/08/21 06:35:57;;;;;;;1.05;0.20;;;20.80;80.60;;;;;;4833245;29;20597;-89
2023/08/21 06:38:30;;;;;;;0.60;0.20;;;20.80;80.60;;;;;;4833625;29;20071;-89
2023/08/21 06:41:06;;;;;;;1.45;0.28;;;20.80;80.60;;;;;;4864620;29;20052;-89
2023/08/21 06:44:00;;;;;;;1.05;0.22;;;20.80;80.50;;;;;;4841911;29;20050;-88
2023/08/21 06:46:37;;;;;;;0.63;0.20;;;20.90;80.40;;;;;;4802112;29;20084;-88
2023/08/21 06:49:19;;;;;;;1.73;0.20;;;20.90;80.50;;;;;;4815522;29;20042;-89
2023/08/21 06:52:19;;;;;;;1.45;0.28;;;20.90;80.60;;;;;;4829743;29;20060;-89
2023/08/21 06:54:58;;;;;;;4.70;0.20;;;21.00;80.40;;;;;;4814531;29;20129;-88
2023/08/21 06:57:50;;;;;;;;;;;21.00;80.30;;;;;;4814756;29;20054;-88
2023/08/21 07:00:17;;;;;;;0.90;0.20;;;21.00;80.10;;;;;;4827136;29;19940;-88
2023/08/21 07:02:48;;;;;;;1.27;0.20;;;21.10;80.10;;;;;;4826883;29;20042;-88
2023/08/21 07:05:41;;;;;;;0.63;0.10;;;21.10;80.10;;;;;;4811212;29;20408;-88
2023/08/21 07:08:28;;;;;;;1.00;0.20;;;21.20;79.80;;;;;;4827088;29;20062;-87
2023/08/21 07:11:06;;;;;;;0.57;0.20;;;21.30;79.60;;;;;;4819045;29;20046;-87
2023/08/21 07:13:42;;;;;;;1.17;0.20;;;21.40;79.60;;;;;;4815844;29;20058;-89
2023/08/21 07:16:12;;;;;;;1.67;0.20;;;21.40;79.30;;;;;;4849328;29;20478;-89
2023/08/21 07:18:40;;;;;;;0.65;0.20;;;21.50;79.10;;;;;;4849862;29;20131;-89
2023/08/21 07:21:08;;;;;;;0.35;0.10;;;21.60;78.80;;;;;;4864768;29;20063;-89
2023/08/21 07:23:55;;;;;;;0.85;0.15;;;21.70;78.70;;;;;;4845919;29;20148;-89
2023/08/21 07:26:30;;;;;;;0.90;0.20;;;21.90;78.40;;;;;;4860290;29;20045;-89
2023/08/21 07:28:57;;;;;;;0.82;0.22;;;22.00;78.00;;;;;;4864528;29;20134;-89
2023/08/21 07:31:28;;;;;;;0.57;0.20;;;22.20;77.60;;;;;;4849131;29;20076;-89
2023/08/21 07:33:59;;;;;;;0.63;0.32;;;22.40;77.10;;;;;;4863980;29;20113;-88
2023/08/21 07:36:26;;;;;;;0.20;0.10;;;22.60;76.80;;;;;;4864526;29;20048;-88
2023/08/21 07:38:54;;;;;;;2.42;0.30;;;22.70;76.60;;;;;;4864296;29;20451;-88
2023/08/21 07:41:26;;;;;;;0.30;0.10;;;22.70;76.30;;;;;;4880059;29;20072;-88
2023/08/21 07:44:06;;;;;;;1.38;0.30;;;22.90;76.00;;;;;;4849326;29;20521;-88
2023/08/21 07:46:37;;;;;;;0.68;0.17;;;23.00;75.60;;;;;;4864143;29;20101;-87
2023/08/21 07:49:10;;;;;;;0.65;0.17;;;23.20;75.30;;;;;;4849042;29;20059;-88
2023/08/21 07:51:40;;;;;;;0.63;0.20;;;23.30;75.00;;;;;;4878743;29;20052;-87
2023/08/21 07:54:22;;;;;;;0.40;0.10;;;23.40;74.90;;;;;;4879308;29;20045;-88
2023/08/21 07:56:54;;;;;;;1.52;0.13;;;23.40;74.80;;;;;;4849437;29;20068;-88
2023/08/21 07:59:29;;;;;;;2.22;0.10;;;23.40;74.80;;;;;;4849120;29;20101;-88
2023/08/21 08:01:57;;;;;;;0.63;0.13;;;23.40;74.80;;;;;;4864004;29;20071;-88
2023/08/21 08:04:26;;;;;;;1.30;0.20;;;23.40;74.70;;;;;;4878744;29;20049;-90
2023/08/21 08:06:54;;;;;;;0.28;0.10;;;23.50;74.60;;;;;;4852071;29;20532;-91
2023/08/21 08:09:21;;;;;;;0.68;0.20;;;23.50;74.50;;;;;;4864121;29;20497;-90
2023/08/21 08:11:48;;;;;;;2.28;0.20;;;23.50;74.40;;;;;;4881894;29;20041;-91
2023/08/21 08:14:18;;;;;;;1.65;0.20;;;23.60;74.20;;;;;;4867065;29;20060;-89
2023/08/21 08:16:55;;;;;;;0.68;0.20;;;23.60;74.00;;;;;;4868511;29;20084;-89
2023/08/21 08:19:22;;;;;;;1.27;0.15;;;23.70;73.80;;;;;;4856530;29;20414;-91
2023/08/21 08:21:55;;;;;;;1.30;0.10;;;23.80;73.60;;;;;;4849411;29;20502;-90
2023/08/21 08:24:22;;;;;;;0.88;0.15;;;23.90;73.40;;;;;;4879374;29;20045;-93
2023/08/21 08:27:04;;;;;;;2.78;0.40;;;24.00;73.00;;;;;;4864129;29;20061;-93
2023/08/21 08:29:46;;;;;;;0.90;0.30;;;24.10;72.70;;;;;;4829068;29;20041;-90
2023/08/21 08:32:16;;;;;;;1.63;0.20;;;24.10;72.70;;;;;;4863952;29;20053;-90
2023/08/21 08:34:46;;;;;;;2.00;0.17;;;24.10;72.70;;;;;;4864117;29;20514;-92
2023/08/21 08:37:24;;;;;;;0.93;0.20;;;24.00;72.80;;;;;;4863485;29;20052;-88
2023/08/21 08:39:54;;;;;;;0.98;0.32;;;24.00;72.90;;;;;;4863822;29;20046;-88
2023/08/21 08:42:23;;;;;;;1.20;0.20;;;24.00;73.00;;;;;;4864050;29;20446;-89
2023/08/21 08:44:54;;;;;;;0.85;0.20;;;23.90;73.00;;;;;;4848886;29;20105;-94
2023/08/21 08:47:33;;;;;;;0.73;0.30;;;24.00;72.90;;;;;;4863925;29;20045;-94
2023/08/21 08:50:07;;;;;;;1.88;0.20;;;24.10;72.60;;;;;;4866573;29;20492;-93
2023/08/21 08:52:50;;;;;;;0.88;0.20;;;24.10;72.40;;;;;;4874125;29;20049;-90
2023/08/21 08:55:27;;;;;;;2.05;0.45;;;24.10;72.30;;;;;;4877665;29;20053;-90
2023/08/21 08:57:58;;;;;;;0.88;0.20;;;24.10;72.40;;;;;;4876848;29;20056;-88
2023/08/21 09:00:42;;;;;;;1.20;0.20;;;24.10;72.20;;;;;;4864566;29;20053;-93
2023/08/21 09:03:16;;;;;;;0.45;0.10;;;24.20;72.10;;;;;;4882728;29;20056;-89
2023/08/21 09:05:53;;;;;;;1.05;0.20;;;24.40;71.80;;;;;;4865214;29;20045;-87
2023/08/21 09:08:21;;;;;;;1.67;0.30;;;24.60;71.40;;;;;;4863701;29;20065;-92
2023/08/21 09:10:59;;;;;;;1.33;0.20;;;24.90;71.00;;;;;;4848097;29;20080;-89
2023/08/21 09:13:31;;;;;;;1.48;0.30;;;25.20;70.40;;;;;;4863472;29;20056;-91
2023/08/21 09:16:03;;;;;;;;;;;25.20;70.10;;;;;;4865586;29;20053;-90
2023/08/21 09:18:39;;;;;;;1.73;0.22;;;25.20;70.30;;;;;;4870795;29;19924;-92
2023/08/21 09:21:14;;;;;;;1.90;0.40;;;25.20;70.20;;;;;;4852801;29;20048;-90
2023/08/21 09:23:45;;;;;;;1.25;0.20;;;25.20;69.90;;;;;;4852143;29;20045;-89
2023/08/21 09:26:23;;;;;;;0.75;0.20;;;25.10;70.00;;;;;;4880524;29;20048;-92
2023/08/21 09:29:14;;;;;;;1.05;0.20;;;25.10;69.90;;;;;;4851370;29;20089;-87
2023/08/21 09:31:45;;;;;;;1.03;0.40;;;25.20;69.70;;;;;;4868818;29;20056;-89
2023/08/21 09:34:44;;;;;;;0.57;0.10;;;25.30;69.50;;;;;;4882663;29;20068;-89
2023/08/21 09:37:19;;;;;;;1.05;0.45;;;25.50;69.20;;;;;;4866627;29;20056;-90
2023/08/21 09:39:46;;;;;;;1.50;0.20;;;25.60;69.10;;;;;;4867291;29;20121;-90
2023/08/21 09:42:16;;;;;;;1.42;0.50;;;25.70;69.00;;;;;;4866861;29;20053;-88
2023/08/21 09:44:43;;;;;;;0.20;0.10;;;25.70;69.00;;;;;;4882229;29;20041;-87
2023/08/21 09:47:16;;;;;;;0.85;0.20;;;25.70;68.90;;;;;;4866548;29;20053;-90
2023/08/21 09:49:46;;;;;;;1.83;0.20;;;25.70;68.70;;;;;;4867271;29;20383;-90
2023/08/21 09:52:24;;;;;;;0.60;0.13;;;25.70;68.50;;;;;;4861283;29;20049;-90
2023/08/21 09:54:56;;;;;;;0.88;0.20;;;25.70;68.40;;;;;;4866313;29;20135;-91
2023/08/21 09:57:25;;;;;;;0.98;0.22;;;25.60;68.40;;;;;;4866805;29;20060;-91
2023/08/21 09:59:54;;;;;;;2.72;0.77;;;25.60;68.10;;;;;;4866944;29;20053;-93
2023/08/21 10:02:25;;;;;;;1.40;0.20;;;25.70;68.00;;;;;;4867270;29;20059;-93
2023/08/21 10:04:54;;;;;;;1.00;0.20;;;25.70;67.80;;;;;;4866593;29;20490;-92
2023/08/21 10:07:29;;;;;;;0.77;0.20;;;25.90;67.00;;;;;;4882308;29;20049;-93
2023/08/21 10:09:57;;;;;;;2.25;0.32;;;25.90;66.50;;;;;;4866393;29;20425;-89
2023/08/21 10:12:26;;;;;;;0.63;0.20;;;26.00;66.70;;;;;;4866554;29;20576;-89
2023/08/21 10:14:54;;;;;;;0.57;0.20;;;26.10;66.50;;;;;;4850604;29;20486;-85
2023/08/21 10:17:21;;;;;;;1.65;0.43;;;26.20;66.10;;;;;;4866179;29;20061;-89
2023/08/21 10:19:52;;;;;;;1.40;0.30;;;26.30;65.40;;;;;;4866205;29;20061;-90
2023/08/21 10:22:58;;;;;;;1.05;0.30;;;26.40;65.00;;;;;;4866192;29;20108;-89
2023/08/21 10:25:26;;;;;;;3.13;0.30;;;26.50;64.40;;;;;;4866821;29;20515;-86
2023/08/21 10:28:03;;;;;;;1.63;0.30;;;26.70;64.20;;;;;;4850927;29;20115;-91
2023/08/21 10:30:33;;;;;;;0.77;0.35;;;26.90;63.60;;;;;;4865718;29;20382;-90
2023/08/21 10:33:01;;;;;;;0.93;0.30;;;27.20;62.90;;;;;;4864985;29;20084;-90
2023/08/21 10:35:30;;;;;;;2.67;0.40;;;27.40;62.20;;;;;;4868473;29;20055;-90
2023/08/21 10:38:12;;;;;;;1.55;0.20;;;27.50;61.70;;;;;;4865812;29;20052;-90
2023/08/21 10:40:41;;;;;;;0.75;0.32;;;27.70;61.40;;;;;;4865851;29;20183;-91
2023/08/21 10:43:37;;;;;;;1.23;0.35;;;27.80;60.90;;;;;;4863090;29;20061;-91
2023/08/21 10:46:08;;;;;;;1.67;0.28;;;27.70;60.60;;;;;;4866661;29;20053;-91
2023/08/21 10:48:36;;;;;;;1.27;0.20;;;27.20;60.60;;;;;;4866309;29;20462;-89
2023/08/21 10:51:09;;;;;;;2.38;0.60;;;26.80;61.80;;;;;;4865928;29;20124;-89
2023/08/21 10:53:42;;;;;;;1.88;0.30;;;27.10;61.90;;;;;;4865401;29;20049;-89
2023/08/21 10:56:42;;;;;;;1.27;0.60;;;27.30;60.90;;;;;;4850312;29;20168;-89
2023/08/21 11:00:17;;;;;;;2.10;0.40;;;27.70;59.50;;;;;;4859996;29;20524;-87
2023/08/21 11:04:01;;;;;;;1.77;0.40;;;28.00;58.50;;;;;;4853594;29;20053;-86
2023/08/21 11:06:31;;;;;;;2.08;0.43;;;28.30;57.90;;;;;;4868258;29;20055;-85
2023/08/21 11:08:58;;;;;;;1.90;0.40;;;28.40;56.90;;;;;;4874815;29;20071;-94
2023/08/21 11:11:26;;;;;;;2.38;0.55;;;28.40;56.60;;;;;;4852997;29;20113;-87
2023/08/21 11:13:54;;;;;;;1.38;0.30;;;28.20;57.60;;;;;;4862247;29;20041;-86
2023/08/21 11:16:21;;;;;;;2.05;0.32;;;27.70;57.80;;;;;;4871949;29;20049;-84
2023/08/21 11:18:48;;;;;;;2.30;0.40;;;27.30;58.60;;;;;;4837551;29;20052;-85
2023/08/21 11:21:15;;;;;;;2.25;0.50;;;27.10;58.90;;;;;;4880958;29;20048;-84
2023/08/21 11:23:43;;;;;;;2.45;0.63;;;26.90;59.30;;;;;;4883340;29;20068;-86
2023/08/21 11:26:11;;;;;;;2.22;0.43;;;26.70;59.30;;;;;;4879100;29;20045;-89
2023/08/21 11:28:48;;;;;;;3.30;0.52;;;26.60;59.90;;;;;;4879570;29;20146;-87
2023/08/21 11:31:16;;;;;;;1.15;0.30;;;27.30;59.20;;;;;;4879448;29;20045;-87
2023/08/21 11:33:50;;;;;;;1.52;0.68;;;28.00;58.20;;;;;;4879266;29;20077;-87
2023/08/21 11:36:18;;;;;;;1.77;0.40;;;28.60;56.70;;;;;;4879660;29;20069;-86
2023/08/21 11:38:59;;;;;;;2.60;0.50;;;28.90;56.20;;;;;;4876106;29;20124;-84
2023/08/21 11:41:27;;;;;;;1.55;0.50;;;28.90;55.30;;;;;;4868249;29;21143;-87
2023/08/21 11:44:02;;;;;;;1.20;0.40;;;29.00;55.30;;;;;;4865474;29;20045;-87
2023/08/21 11:46:30;;;;;;;1.13;0.30;;;29.20;55.20;;;;;;4869606;29;20119;-86
2023/08/21 11:48:57;;;;;;;2.13;0.40;;;29.40;54.80;;;;;;4864708;29;20466;-90
2023/08/21 11:51:24;;;;;;;1.42;0.50;;;29.40;54.50;;;;;;4870472;29;20056;-92
2023/08/21 11:53:52;;;;;;;2.80;0.35;;;29.50;54.30;;;;;;4852955;29;20084;-93
2023/08/21 11:56:19;;;;;;;0.93;0.30;;;29.80;54.20;;;;;;4851884;29;20080;-92
2023/08/21 11:58:50;;;;;;;2.17;0.30;;;29.80;53.80;;;;;;4835800;29;20391;-93
2023/08/21 12:01:20;;;;;;;1.75;0.30;;;30.00;53.40;;;;;;4850156;29;20053;-91
2023/08/21 12:03:54;;;;;;;1.25;0.30;;;30.20;53.50;;;;;;4864964;29;20072;-93
2023/08/21 12:06:23;;;;;;;1.08;0.30;;;30.30;53.50;;;;;;4864887;29;20053;-92
2023/08/21 12:08:50;;;;;;;1.23;0.30;;;30.10;53.40;;;;;;4864362;29;20139;-92
2023/08/21 12:11:17;;;;;;;1.55;0.60;;;30.20;53.50;;;;;;4864961;29;20417;-92
2023/08/21 12:13:45;;;;;;;1.38;0.20;;;29.80;53.30;;;;;;4849740;29;20045;-92
2023/08/21 12:16:12;;;;;;;1.55;0.20;;;29.30;54.20;;;;;;4849643;29;20513;-93
2023/08/21 12:18:39;;;;;;;2.45;0.28;;;28.90;54.90;;;;;;4864461;29;20083;-92
2023/08/21 12:21:07;;;;;;;2.08;0.20;;;28.50;55.60;;;;;;4849568;29;20056;-93
2023/08/21 12:23:38;;;;;;;1.42;0.50;;;28.30;56.00;;;;;;4865342;29;20045;-92
2023/08/21 12:26:06;;;;;;;1.77;0.40;;;28.10;55.60;;;;;;4864774;29;20045;-92
2023/08/21 12:28:33;;;;;;;2.55;0.52;;;27.80;55.50;;;;;;4849162;29;20053;-92
2023/08/21 12:31:03;;;;;;;2.03;0.43;;;27.70;55.90;;;;;;4864592;29;20065;-94
2023/08/21 12:33:30;;;;;;;2.78;0.57;;;27.60;55.80;;;;;;4834267;29;20055;-93
2023/08/21 12:35:57;;;;;;;1.83;0.35;;;27.50;55.90;;;;;;4849035;29;20049;-92
2023/08/21 12:38:28;;;;;;;3.92;0.60;;;27.30;55.90;;;;;;4862840;29;20056;-84
2023/08/21 12:40:56;;;;;;;0.20;0.20;;;27.30;56.20;;;;;;4849065;29;20041;-83
2023/08/21 12:43:26;;;;;;;2.20;0.40;;;27.30;56.20;;;;;;4879279;29;20049;-84
2023/08/21 12:45:53;;;;;;;0.77;0.30;;;27.20;55.90;;;;;;4862672;29;20040;-82
2023/08/21 12:48:20;;;;;;;1.00;0.40;;;27.10;56.10;;;;;;4878177;29;20446;-82
2023/08/21 12:50:47;;;;;;;3.75;0.60;;;27.10;55.70;;;;;;4846866;29;20135;-83
2023/08/21 12:53:16;;;;;;;1.17;0.30;;;27.10;55.70;;;;;;4848118;29;20063;-83
2023/08/21 12:55:43;;;;;;;0.82;0.30;;;27.10;55.70;;;;;;4862988;29;20056;-83
2023/08/21 12:58:13;;;;;;;1.52;0.40;;;27.20;55.70;;;;;;4832292;29;20049;-83
2023/08/21 13:00:40;;;;;;;0.82;0.30;;;27.20;55.30;;;;;;4862973;29;20053;-83
2023/08/21 13:03:08;;;;;;;0.77;0.30;;;27.20;55.40;;;;;;4866006;29;20093;-83
2023/08/21 13:05:35;;;;;;;0.90;0.30;;;27.20;55.50;;;;;;4871996;29;20051;-83
2023/08/21 13:08:05;;;;;;;2.05;0.40;;;27.20;55.10;;;;;;4864245;29;20053;-96
2023/08/21 13:10:45;;;;;;;0.90;0.20;;;27.20;55.20;;;;;;4865268;29;20041;-95
2023/08/21 13:13:12;;;;;;;3.70;0.57;;;27.20;55.30;;;;;;4864469;29;20085;-92
2023/08/21 13:15:47;;;;;;;2.42;0.35;;;27.20;54.80;;;;;;4853606;29;20056;-91
2023/08/21 13:18:14;;;;;;;3.15;0.50;;;27.20;55.00;;;;;;4837280;29;20084;-88
2023/08/21 13:20:42;;;;;;;2.20;0.47;;;27.20;54.80;;;;;;4867597;29;20061;-91
2023/08/21 13:23:12;;;;;;;2.38;0.40;;;27.30;54.60;;;;;;4865489;29;20469;-94
2023/08/21 13:26:07;;;;;;;1.38;0.45;;;27.30;54.80;;;;;;4853728;29;20049;-95
2023/08/21 13:28:37;;;;;;;2.35;0.40;;;27.40;54.80;;;;;;4865977;29;20147;-94
2023/08/21 13:31:12;;;;;;;1.48;0.50;;;27.50;54.70;;;;;;4881299;29;20132;-95
2023/08/21 13:34:17;;;;;;;2.97;0.50;;;27.50;54.40;;;;;;4888356;29;20051;-95
2023/08/21 13:46:20;;;;;;;3.33;0.40;;;27.60;54.60;;;;;;5151105;24;20056;-90
2023/08/21 13:48:47;;;;;;;0.57;0.32;;;27.70;54.50;;;;;;4900729;29;20054;-84
2023/08/21 13:51:15;;;;;;;0.82;0.25;;;27.70;54.50;;;;;;4880846;29;20079;-85
2023/08/21 13:53:45;;;;;;;0.95;0.40;;;27.80;54.80;;;;;;4882758;29;20063;-84
2023/08/21 13:56:12;;;;;;;1.90;0.30;;;27.80;54.90;;;;;;4870332;29;20649;-87
2023/08/21 13:58:39;;;;;;;1.55;0.20;;;27.80;54.60;;;;;;4892283;29;20047;-86
2023/08/21 14:01:07;;;;;;;1.75;0.40;;;27.70;54.20;;;;;;4870148;29;20049;-86
2023/08/21 14:03:36;;;;;;;0.90;0.30;;;27.60;53.30;;;;;;4875060;29;20056;-86
2023/08/21 14:06:06;;;;;;;1.55;0.40;;;27.60;53.00;;;;;;4887171;29;20052;-83
2023/08/21 14:08:33;;;;;;;1.65;0.40;;;27.50;53.00;;;;;;4890026;29;20048;-83
2023/08/21 14:11:00;;;;;;;1.13;0.30;;;27.50;52.10;;;;;;4900557;29;20505;-84
2023/08/21 14:13:27;;;;;;;0.80;0.13;;;27.40;52.20;;;;;;4870142;29;20120;-85
2023/08/21 14:15:57;;;;;;;1.13;0.47;;;27.40;52.50;;;;;;4887147;29;20052;-84
2023/08/21 14:18:25;;;;;;;1.02;0.20;;;27.40;52.70;;;;;;4867798;29;20052;-84